createdAt,value
2023-08-25T00:01:04.900Z,20.99
2023-08-25T00:03:58.392Z,20.95
2023-08-25T00:06:37.041Z,20.85
2023-08-25T00:10:16.077Z,20.96
2023-08-25T00:12:52.196Z,20.97
2023-08-25T00:15:56.357Z,20.88
2023-08-25T00:18:55.240Z,20.97
2023-08-25T00:21:27.299Z,20.93
2023-08-25T00:24:08.328Z,20.87
2023-08-25T00:27:43.340Z,20.91
2023-08-25T00:30:18.009Z,20.81
2023-08-25T00:33:05.033Z,20.83
2023-08-25T00:35:48.332Z,20.80
2023-08-25T00:38:27.232Z,20.81
2023-08-25T00:41:08.079Z,20.79
2023-08-25T00:43:45.736Z,20.78
2023-08-25T00:46:25.648Z,20.73
2023-08-25T00:49:02.171Z,20.67
2023-08-25T00:51:37.601Z,20.67
2023-08-25T00:55:00.482Z,20.63
2023-08-25T00:57:54.856Z,20.59
2023-08-25T01:01:41.980Z,20.63
2023-08-25T01:04:23.544Z,20.62
2023-08-25T01:06:59.411Z,20.63
2023-08-25T01:09:39.619Z,20.62
2023-08-25T01:12:31.116Z,20.54
2023-08-25T01:15:40.423Z,20.55
2023-08-25T01:18:29.739Z,20.49
2023-08-25T01:21:09.659Z,20.38
2023-08-25T01:24:16.615Z,20.53
2023-08-25T01:26:53.587Z,20.54
2023-08-25T01:29:36.180Z,20.66
2023-08-25T01:32:06.235Z,20.69
2023-08-25T01:34:40.616Z,20.62
2023-08-25T01:37:25.574Z,20.51
2023-08-25T01:40:25.205Z,20.50
2023-08-25T01:43:27.634Z,20.45
2023-08-25T01:46:39.099Z,20.44
2023-08-25T01:49:27.526Z,20.34
2023-08-25T01:52:09.210Z,20.34
2023-08-25T01:54:46.234Z,20.40
2023-08-25T01:57:19.547Z,20.37
2023-08-25T02:00:26.666Z,20.41
2023-08-25T02:03:19.452Z,20.41
2023-08-25T02:06:17.735Z,20.45
2023-08-25T02:08:52.626Z,20.48
2023-08-25T02:11:31.952Z,20.38
2023-08-25T02:14:31.839Z,20.37
2023-08-25T02:17:05.516Z,20.52
2023-08-25T02:19:42.905Z,20.57
2023-08-25T02:22:31.143Z,20.56
2023-08-25T02:25:09.476Z,20.46
2023-08-25T02:27:50.835Z,20.47
2023-08-25T02:30:28.524Z,20.51
2023-08-25T02:33:05.519Z,20.56
2023-08-25T02:35:58.686Z,20.59
2023-08-25T02:38:50.120Z,20.58
2023-08-25T02:41:33.348Z,20.56
2023-08-25T02:44:12.802Z,20.49
2023-08-25T02:46:50.345Z,20.44
2023-08-25T02:49:26.682Z,20.50
2023-08-25T02:52:01.440Z,20.47
2023-08-25T02:54:50.550Z,20.46
2023-08-25T02:57:36.612Z,20.45
2023-08-25T03:00:18.295Z,20.49
2023-08-25T03:03:49.580Z,20.51
2023-08-25T03:06:59.425Z,20.46
2023-08-25T03:10:02.994Z,20.42
2023-08-25T03:13:40.347Z,20.40
2023-08-25T03:16:25.159Z,20.36
2023-08-25T03:19:09.484Z,20.33
2023-08-25T03:22:10.099Z,20.27
2023-08-25T03:24:50.604Z,20.27
2023-08-25T03:27:23.962Z,20.22
2023-08-25T03:30:08.168Z,20.25
2023-08-25T03:33:09.322Z,20.25
2023-08-25T03:35:44.113Z,20.20
2023-08-25T03:38:50.602Z,20.29
2023-08-25T03:44:42.218Z,20.68
2023-08-25T03:47:33.942Z,20.91
2023-08-25T03:50:12.828Z,21.16
2023-08-25T03:53:07.861Z,21.29
2023-08-25T03:55:44.148Z,21.41
2023-08-25T03:58:21.296Z,21.49
2023-08-25T04:01:07.318Z,21.40
2023-08-25T04:04:04.550Z,21.40
2023-08-25T04:07:00.249Z,21.39
2023-08-25T04:10:41.133Z,21.35
2023-08-25T04:13:44.088Z,21.31
2023-08-25T04:16:38.457Z,21.32
2023-08-25T04:19:40.690Z,21.28
2023-08-25T04:22:21.396Z,21.44
2023-08-25T04:31:24.701Z,21.54
2023-08-25T04:37:58.124Z,21.52
2023-08-25T04:40:56.018Z,21.53
2023-08-25T04:43:37.137Z,21.48
2023-08-25T04:46:50.636Z,21.58
2023-08-25T04:51:03.948Z,21.61
2023-08-25T04:59:01.748Z,21.72
2023-08-25T05:01:49.177Z,21.71
2023-08-25T05:04:36.152Z,21.74
2023-08-25T05:08:35.639Z,21.81
2023-08-25T05:11:14.410Z,21.89
2023-08-25T05:15:19.084Z,21.97
2023-08-25T05:19:17.737Z,22.20
2023-08-25T05:21:51.868Z,22.31
2023-08-25T05:27:44.257Z,22.74
2023-08-25T05:31:22.996Z,22.82
2023-08-25T05:46:58.089Z,23.43
2023-08-25T05:50:50.947Z,23.55
2023-08-25T05:57:14.522Z,23.81
2023-08-25T06:01:03.825Z,23.93
2023-08-25T06:03:50.833Z,24.04
2023-08-25T06:06:44.910Z,24.21
2023-08-25T06:09:30.630Z,24.34
2023-08-25T06:16:23.044Z,24.47
2023-08-25T06:30:43.567Z,24.84
2023-08-25T06:34:14.313Z,24.89
2023-08-25T06:41:32.825Z,25.11
2023-08-25T06:53:08.599Z,25.60
2023-08-25T06:57:01.195Z,25.83
2023-08-25T07:00:40.499Z,25.92
2023-08-25T07:12:17.674Z,26.16
2023-08-25T07:15:00.222Z,26.16
2023-08-25T07:18:44.831Z,26.13
2023-08-25T07:22:17.228Z,26.11
2023-08-25T07:25:50.087Z,26.11
2023-08-25T07:28:59.201Z,26.17
2023-08-25T07:32:15.383Z,26.21
2023-08-25T07:35:21.286Z,26.35
2023-08-25T07:38:21.351Z,26.41
2023-08-25T07:41:50.006Z,26.42
2023-08-25T07:44:38.280Z,26.45
2023-08-25T07:51:56.053Z,26.81
2023-08-25T08:07:23.451Z,27.42
2023-08-25T08:10:09.023Z,27.68
2023-08-25T08:33:33.328Z,33.93
2023-08-25T08:36:57.719Z,34.70
2023-08-25T08:39:58.685Z,34.60
2023-08-25T08:42:57.131Z,34.70
2023-08-25T08:46:30.286Z,35.91
2023-08-25T08:49:09.832Z,36.77
2023-08-25T08:52:06.573Z,37.56
2023-08-25T08:59:46.133Z,38.83
2023-08-25T09:07:51.891Z,39.60
2023-08-25T09:12:02.388Z,39.45
2023-08-25T09:16:12.657Z,38.92
2023-08-25T09:24:12.630Z,38.44
2023-08-25T09:28:06.603Z,39.60
2023-08-25T09:53:38.894Z,41.60
2023-08-25T10:32:53.161Z,38.00
2023-08-25T10:40:29.690Z,34.11
2023-08-25T10:44:22.348Z,33.83
2023-08-25T10:51:47.566Z,32.68
2023-08-25T10:54:22.895Z,32.34
2023-08-25T11:06:47.685Z,32.54
2023-08-25T11:19:12.674Z,32.29
2023-08-25T11:22:36.935Z,32.15
2023-08-25T11:30:26.132Z,31.85
2023-08-25T11:34:01.130Z,31.69
2023-08-25T11:37:45.052Z,31.74
2023-08-25T11:40:30.239Z,31.80
2023-08-25T11:46:42.255Z,31.98
2023-08-25T11:50:35.170Z,31.99
2023-08-25T11:53:19.660Z,31.82
2023-08-25T12:00:00.424Z,31.79
2023-08-25T12:03:37.171Z,31.90
2023-08-25T12:06:11.260Z,31.93
2023-08-25T12:09:31.211Z,31.90
2023-08-25T12:18:57.479Z,31.81
2023-08-25T12:21:37.538Z,31.75
2023-08-25T12:24:18.200Z,31.88
2023-08-25T12:27:02.139Z,31.94
2023-08-25T12:34:33.307Z,32.20
2023-08-25T12:38:00.089Z,32.30
2023-08-25T12:42:10.149Z,32.38
2023-08-25T12:51:24.096Z,32.20
2023-08-25T12:58:52.220Z,32.15
2023-08-25T13:01:27.261Z,32.38
2023-08-25T13:05:19.577Z,32.44
2023-08-25T13:08:37.183Z,32.23
2023-08-25T13:11:35.850Z,32.06
2023-08-25T13:14:48.117Z,31.85
2023-08-25T13:17:47.600Z,31.74
2023-08-25T13:33:42.806Z,31.83
2023-08-25T13:37:08.979Z,31.73
2023-08-25T13:45:05.426Z,31.45
2023-08-25T13:52:27.677Z,31.42
2023-08-25T13:55:15.244Z,31.43
2023-08-25T13:58:56.036Z,31.48
2023-08-25T14:02:03.297Z,31.52
2023-08-25T14:05:06.831Z,31.62
2023-08-25T14:08:23.853Z,31.54
2023-08-25T14:19:41.641Z,31.51
2023-08-25T14:23:26.193Z,31.48
2023-08-25T14:26:56.118Z,31.59
2023-08-25T14:29:51.187Z,31.33
2023-08-25T14:33:04.321Z,31.34
2023-08-25T14:37:14.147Z,31.31
2023-08-25T14:39:55.435Z,31.27
2023-08-25T14:42:30.915Z,31.26
2023-08-25T14:46:09.283Z,31.25
2023-08-25T14:49:11.439Z,31.43
2023-08-25T14:51:52.150Z,31.57
2023-08-25T15:03:29.088Z,31.83
2023-08-25T15:07:13.476Z,31.90
2023-08-25T15:10:35.269Z,31.88
2023-08-25T15:13:43.009Z,31.85
2023-08-25T15:17:25.878Z,31.88
2023-08-25T15:20:21.770Z,31.75
2023-08-25T15:26:27.081Z,31.52
2023-08-25T15:29:27.878Z,31.36
2023-08-25T15:35:57.059Z,31.13
2023-08-25T15:41:30.552Z,31.12
2023-08-25T15:44:21.114Z,31.15
2023-08-25T15:47:13.107Z,31.07
2023-08-25T15:50:18.278Z,31.21
2023-08-25T15:53:06.941Z,31.20
2023-08-25T15:55:53.215Z,31.17
2023-08-25T15:58:55.890Z,31.11
2023-08-25T16:01:43.929Z,31.04
2023-08-25T16:04:27.003Z,30.98
2023-08-25T16:07:28.118Z,30.88
2023-08-25T16:10:27.991Z,30.73
2023-08-25T16:14:27.944Z,30.65
2023-08-25T16:17:40.950Z,30.52
2023-08-25T16:28:20.520Z,29.94
2023-08-25T16:38:40.020Z,29.58
2023-08-25T16:41:17.623Z,29.36
2023-08-25T16:44:20.398Z,29.29
2023-08-25T16:47:09.694Z,29.21
2023-08-25T16:49:47.106Z,29.12
2023-08-25T16:53:09.996Z,29.02
2023-08-25T16:56:07.911Z,28.91
2023-08-25T17:03:26.895Z,28.71
2023-08-25T17:06:21.789Z,28.64
2023-08-25T17:10:44.234Z,28.57
2023-08-25T17:27:25.458Z,28.18
2023-08-25T17:39:49.125Z,27.90
2023-08-25T17:46:25.344Z,27.74
2023-08-25T17:49:09.090Z,27.66
2023-08-25T17:52:07.175Z,27.58
2023-08-25T18:08:24.827Z,27.26
2023-08-25T18:11:22.085Z,27.21
2023-08-25T18:15:13.931Z,27.16
2023-08-25T18:19:26.413Z,27.10
2023-08-25T18:31:15.409Z,26.86
2023-08-25T18:35:13.774Z,26.75
2023-08-25T18:39:16.519Z,26.67
2023-08-25T18:50:45.905Z,26.42
2023-08-25T18:54:23.280Z,26.34
2023-08-25T18:56:55.448Z,26.31
2023-08-25T19:07:49.794Z,26.21
2023-08-25T19:11:18.473Z,26.23
2023-08-25T19:19:14.426Z,26.20
2023-08-25T19:23:32.369Z,26.22
2023-08-25T19:27:00.350Z,26.23
2023-08-25T19:33:59.129Z,26.21
2023-08-25T19:37:28.199Z,26.19
2023-08-25T19:57:34.646Z,26.02
2023-08-25T20:01:33.051Z,25.93
2023-08-25T20:12:10.391Z,25.75
2023-08-25T20:14:43.394Z,25.74
2023-08-25T20:17:31.076Z,25.73
2023-08-25T20:20:16.125Z,25.72
2023-08-25T20:22:52.896Z,25.63
2023-08-25T20:25:27.175Z,25.63
2023-08-25T20:28:37.043Z,25.63
2023-08-25T20:31:33.098Z,25.62
2023-08-25T20:35:03.820Z,25.61
2023-08-25T20:38:22.426Z,25.58
2023-08-25T20:41:28.668Z,25.55
2023-08-25T20:44:14.568Z,25.51
2023-08-25T20:47:57.001Z,25.51
2023-08-25T20:51:59.364Z,25.47
2023-08-25T21:02:26.735Z,25.47
2023-08-25T21:05:07.342Z,25.46
2023-08-25T21:12:04.431Z,25.43
2023-08-25T21:14:50.220Z,25.43
2023-08-25T21:18:03.530Z,25.41
2023-08-25T21:22:25.839Z,25.40
2023-08-25T21:30:32.903Z,25.29
2023-08-25T21:34:22.223Z,25.27
2023-08-25T21:37:27.865Z,25.23
2023-08-25T21:40:12.072Z,25.22
2023-08-25T21:43:55.537Z,25.19
2023-08-25T21:47:50.619Z,25.18
2023-08-25T22:04:28.716Z,25.04
2023-08-25T22:08:24.890Z,25.01
2023-08-25T22:12:04.279Z,24.96
2023-08-25T22:14:38.540Z,24.92
2023-08-25T22:17:27.436Z,24.90
2023-08-25T22:21:00.412Z,24.85
2023-08-25T22:23:59.004Z,24.80
2023-08-25T22:26:33.818Z,24.77
2023-08-25T22:30:18.215Z,24.73
2023-08-25T22:36:17.090Z,24.67
2023-08-25T22:42:34.861Z,24.59
2023-08-25T22:45:30.213Z,24.55
2023-08-25T22:53:32.167Z,24.48
2023-08-25T23:01:44.067Z,24.29
2023-08-25T23:04:36.968Z,24.22
2023-08-25T23:08:56.601Z,24.16
2023-08-25T23:16:01.270Z,24.02
2023-08-25T23:18:49.980Z,23.95
2023-08-25T23:25:22.097Z,23.85
2023-08-25T23:28:07.200Z,23.77
2023-08-25T23:30:46.774Z,23.77
2023-08-25T23:33:23.965Z,23.71
2023-08-25T23:36:45.587Z,23.76
2023-08-25T23:39:19.443Z,23.74
2023-08-25T23:43:04.467Z,23.74
2023-08-25T23:50:08.168Z,23.65
2023-08-25T23:53:58.103Z,23.62
2023-08-25T23:57:55.479Z,23.57
